Time;durP1;ratioP1;P1;durP2;ratioP2;P2;SDS_P1;SDS_P2;PMS_P1;PMS_P2;Temp;Humidity;BMP_temperature;BMP_pressure;BME280_temperature;BME280_humidity;BME280_pressure;Samples;Min_cycle;Max_cycle;Signal;HPM_P1;HPM_P2
2023/08/30 04:41:09;;;;;;;16.20;8.30;;;;;;;22.17;93.63;99705.47;110534;1249;22485;-46
2023/08/30 04:43:37;;;;;;;13.30;8.00;;;;;;;22.24;93.06;99700.65;110641;1249;22504;-41
2023/08/30 04:46:04;;;;;;;14.40;7.00;;;;;;;22.32;92.46;99701.56;110806;1249;23220;-39
2023/08/30 04:48:31;;;;;;;11.80;6.60;;;;;;;22.41;91.91;99699.66;112855;1249;23177;-40
2023/08/30 04:51:03;;;;;;;8.70;6.40;;;;;;;22.50;91.29;99698.80;112852;1249;22491;-41
2023/08/30 04:53:30;;;;;;;13.20;6.50;;;;;;;22.60;90.47;99700.33;110749;1248;22509;-40
2023/08/30 04:55:59;;;;;;;9.50;6.60;;;;;;;22.70;89.54;99702.77;110318;1241;24030;-48
2023/08/30 04:58:27;;;;;;;15.00;7.10;;;;;;;22.78;88.55;99702.09;110578;1248;24279;-48
2023/08/30 05:00:56;;;;;;;9.80;6.60;;;;;;;22.86;87.84;99699.85;110152;1249;25386;-41
2023/08/30 05:03:23;;;;;;;11.50;6.40;;;;;;;22.96;86.58;99702.30;111752;1249;22290;-41
2023/08/30 05:05:51;;;;;;;15.60;6.70;;;;;;;23.03;85.49;99700.23;112367;1248;22653;-47
2023/08/30 05:08:18;;;;;;;11.70;6.60;;;;;;;23.09;84.67;99694.38;110971;1249;23064;-48
2023/08/30 05:10:46;;;;;;;15.10;6.40;;;;;;;23.16;84.08;99695.55;110974;1249;22455;-47
2023/08/30 05:13:15;;;;;;;9.10;6.30;;;;;;;23.23;83.64;99688.70;111875;1248;23734;-47
2023/08/30 05:15:42;;;;;;;10.30;5.90;;;;;;;23.37;82.22;99691.59;111712;1249;22469;-47
2023/08/30 05:18:09;;;;;;;11.10;5.50;;;;;;;23.44;81.03;99691.84;111953;1249;22445;-48
2023/08/30 05:20:37;;;;;;;12.50;6.00;;;;;;;23.53;80.09;99696.11;111198;1248;22633;-43
2023/08/30 05:23:04;;;;;;;17.50;7.20;;;;;;;23.62;79.10;99700.02;111778;1249;24270;-41
2023/08/30 05:25:31;;;;;;;11.60;6.70;;;;;;;23.71;77.79;99699.29;111444;1249;22411;-47
2023/08/30 05:27:58;;;;;;;18.20;10.30;;;;;;;23.78;76.18;99698.27;113055;1249;22349;-48
2023/08/30 05:30:25;;;;;;;21.90;11.70;;;;;;;23.85;75.43;99702.23;112837;1248;22452;-47
2023/08/30 05:32:54;;;;;;;27.50;14.60;;;;;;;23.96;74.62;99704.81;112918;1249;22249;-40
2023/08/30 05:35:42;;;;;;;18.50;11.00;;;;;;;24.07;73.86;99704.44;112911;1249;22365;-40
2023/08/30 05:38:44;;;;;;;19.50;8.60;;;;;;;24.20;73.01;99707.47;112721;1249;23438;-48
2023/08/30 05:41:23;;;;;;;22.80;8.90;;;;;;;24.35;71.77;99710.41;112772;1249;22626;-41
2023/08/30 05:43:51;;;;;;;16.60;9.20;;;;;;;24.47;69.91;99710.04;113003;1249;22439;-41
2023/08/30 05:46:18;;;;;;;22.10;9.70;;;;;;;24.56;69.08;99708.66;113024;1249;22237;-48
2023/08/30 05:48:45;;;;;;;16.10;7.90;;;;;;;24.65;68.08;99709.13;112999;1249;22485;-40
2023/08/30 05:51:12;;;;;;;17.50;6.80;;;;;;;24.74;67.26;99708.20;111012;1248;22510;-49
2023/08/30 05:53:39;;;;;;;11.70;6.20;;;;;;;24.83;66.14;99707.20;110203;1248;24181;-41
2023/08/30 05:56:06;;;;;;;16.00;6.90;;;;;;;24.90;65.57;99707.60;111328;1249;22830;-41
2023/08/30 05:58:35;;;;;;;12.20;5.70;;;;;;;24.98;65.10;99710.08;110553;1249;22544;-39
2023/08/30 06:01:03;;;;;;;9.40;5.60;;;;;;;25.05;64.20;99708.58;112891;1248;22707;-39
2023/08/30 06:03:32;;;;;;;8.00;5.10;;;;;;;25.10;63.59;99703.43;112480;1249;22527;-48
2023/08/30 06:05:59;;;;;;;17.70;6.20;;;;;;;25.15;62.77;99708.05;112722;1249;22881;-48
2023/08/30 06:08:26;;;;;;;13.80;5.50;;;;;;;25.18;62.17;99703.73;111211;1249;22493;-48
2023/08/30 06:10:53;;;;;;;9.10;5.90;;;;;;;25.21;61.96;99702.65;110983;1249;22511;-49
2023/08/30 06:13:20;;;;;;;12.80;5.50;;;;;;;25.23;62.09;99701.80;112802;1248;22965;-48
2023/08/30 06:15:51;;;;;;;16.10;5.60;;;;;;;25.30;62.00;99701.15;112928;1249;22525;-48
2023/08/30 06:18:18;;;;;;;11.20;5.60;;;;;;;25.40;61.56;99699.57;112959;1249;22356;-39
2023/08/30 06:20:46;;;;;;;14.70;5.80;;;;;;;25.48;60.73;99698.25;112912;1248;22369;-40
2023/08/30 06:23:13;;;;;;;9.90;5.10;;;;;;;25.54;60.60;99697.99;112928;1249;22355;-40
2023/08/30 06:25:40;;;;;;;6.90;4.50;;;;;;;25.60;60.23;99698.09;112904;1248;22539;-43
2023/08/30 06:28:07;;;;;;;10.60;5.00;;;;;;;25.64;59.60;99696.01;112958;1249;22229;-40
2023/08/30 06:30:35;;;;;;;14.60;4.80;;;;;;;25.69;59.54;99698.91;112991;1249;22444;-40
2023/08/30 06:33:02;;;;;;;13.10;5.40;;;;;;;25.75;59.22;99699.20;113009;1249;22432;-41
2023/08/30 06:35:29;;;;;;;12.40;5.90;;;;;;;25.83;58.99;99701.89;111286;1249;22527;-41
2023/08/30 06:37:56;;;;;;;13.10;5.20;;;;;;;25.90;58.83;99705.60;112176;1249;22237;-40
2023/08/30 06:40:24;;;;;;;13.40;4.70;;;;;;;26.00;57.84;99703.29;112970;1248;22396;-40
2023/08/30 06:42:51;;;;;;;11.30;5.10;;;;;;;26.06;57.76;99705.38;111791;1249;24193;-39
2023/08/30 06:45:19;;;;;;;16.90;5.30;;;;;;;26.10;57.82;99706.98;112480;1249;23157;-41
2023/08/30 06:47:48;;;;;;;18.40;4.50;;;;;;;26.17;58.01;99707.70;112394;1249;22299;-50
2023/08/30 06:50:16;;;;;;;12.30;4.80;;;;;;;26.27;57.07;99707.86;111400;1249;22425;-47
2023/08/30 06:52:43;;;;;;;13.30;4.50;;;;;;;26.36;56.51;99705.61;112958;1249;22365;-49
2023/08/30 06:55:10;;;;;;;9.10;4.50;;;;;;;26.46;56.07;99705.55;112932;1249;22529;-40
2023/08/30 06:57:37;;;;;;;9.50;4.20;;;;;;;26.61;55.74;99705.58;112928;1249;22422;-40
2023/08/30 07:00:09;;;;;;;16.40;4.50;;;;;;;26.73;54.24;99704.27;112140;1248;23210;-40
2023/08/30 07:02:37;;;;;;;;;;;;;;;26.79;53.24;99698.78;112525;1248;22986;-47
2023/08/30 07:05:05;;;;;;;14.50;4.30;;;;;;;26.79;52.01;99694.66;112885;1249;22406;-40
2023/08/30 07:07:32;;;;;;;9.00;4.20;;;;;;;26.80;52.45;99691.58;112926;1249;23112;-41
2023/08/30 07:10:00;;;;;;;9.80;4.20;;;;;;;26.87;52.26;99693.14;112957;1249;22417;-47
2023/08/30 07:12:27;;;;;;;20.70;4.60;;;;;;;26.97;51.74;99692.20;112968;1249;22888;-47
2023/08/30 07:14:54;;;;;;;8.90;4.60;;;;;;;27.05;51.12;99691.09;112940;1240;22384;-40
2023/08/30 07:17:21;;;;;;;10.00;4.30;;;;;;;27.16;51.82;99685.73;112736;1249;22893;-47
2023/08/30 07:19:49;;;;;;;7.00;4.00;;;;;;;27.30;50.98;99683.39;112525;1249;22771;-40
2023/08/30 07:22:17;;;;;;;12.80;4.20;;;;;;;27.37;48.92;99678.55;112982;1249;22374;-40
2023/08/30 07:24:44;;;;;;;9.90;5.00;;;;;;;27.42;49.36;99681.52;112918;1249;23007;-42
2023/08/30 07:27:12;;;;;;;9.70;5.20;;;;;;;27.51;48.95;99680.64;112903;1249;22241;-48
2023/08/30 07:29:43;;;;;;;13.60;4.70;;;;;;;27.59;48.60;99679.24;112288;1249;23143;-46
2023/08/30 07:32:10;;;;;;;8.40;4.50;;;;;;;27.70;48.75;99680.42;112880;1249;23104;-47
2023/08/30 07:34:37;;;;;;;6.20;4.10;;;;;;;27.77;47.48;99674.98;112955;1248;23475;-40
2023/08/30 07:37:04;;;;;;;4.60;4.00;;;;;;;27.80;46.95;99675.10;112904;1249;23164;-40
2023/08/30 07:39:31;;;;;;;14.10;4.90;;;;;;;27.85;46.61;99677.78;112886;1249;23176;-40
2023/08/30 07:41:58;;;;;;;9.00;4.90;;;;;;;27.92;47.31;99675.42;112898;1248;22941;-40
2023/08/30 07:44:25;;;;;;;12.30;5.40;;;;;;;28.03;46.63;99674.33;112823;1249;22375;-40
2023/08/30 07:46:53;;;;;;;13.50;4.50;;;;;;;28.14;46.20;99676.77;112807;1249;22486;-41
2023/08/30 07:49:21;;;;;;;9.40;4.40;;;;;;;28.25;46.08;99674.98;112890;1249;23314;-41
2023/08/30 07:51:48;;;;;;;10.00;4.10;;;;;;;28.34;46.09;99671.58;112773;1249;184817;-40
2023/08/30 07:54:15;;;;;;;4.90;3.70;;;;;;;28.43;45.70;99672.27;112904;1249;22353;-40
2023/08/30 08:01:14;;;;;;;11.70;5.20;;;;;;;28.66;45.39;99662.98;111645;1249;25580;-39
2023/08/30 08:03:43;;;;;;;10.20;4.90;;;;;;;28.79;45.12;99659.34;112364;1248;22429;-47
2023/08/30 08:06:26;;;;;;;6.70;4.50;;;;;;;28.94;45.18;99659.88;112951;1249;22400;-40
2023/08/30 08:08:53;;;;;;;8.20;4.70;;;;;;;29.08;44.82;99659.91;112961;1249;22440;-40
2023/08/30 08:11:20;;;;;;;7.70;5.20;;;;;;;29.19;44.21;99654.61;112982;1249;23293;-40
2023/08/30 08:13:47;;;;;;;8.00;4.10;;;;;;;29.30;43.90;99646.64;112965;1249;22358;-40
2023/08/30 08:16:14;;;;;;;10.30;4.70;;;;;;;29.39;43.45;99652.13;112710;1249;22496;-42
2023/08/30 08:18:42;;;;;;;9.50;4.80;;;;;;;29.47;43.39;99652.89;112923;1249;23160;-39
2023/08/30 08:21:08;;;;;;;10.40;5.00;;;;;;;29.52;43.16;99655.48;112489;1249;22962;-40
2023/08/30 08:23:36;;;;;;;8.80;4.70;;;;;;;29.57;42.73;99655.39;112678;1249;22699;-47
2023/08/30 08:26:07;;;;;;;9.80;5.20;;;;;;;29.62;41.97;99657.81;112587;1249;22828;-47
2023/08/30 08:28:35;;;;;;;11.60;5.00;;;;;;;29.60;42.14;99654.64;112910;1248;22412;-48
2023/08/30 08:31:02;;;;;;;12.30;5.10;;;;;;;29.55;42.37;99654.88;112883;1249;22993;-47
2023/08/30 08:33:29;;;;;;;9.50;4.90;;;;;;;29.55;42.63;99657.64;112960;1248;22373;-47
2023/08/30 08:35:56;;;;;;;8.30;4.60;;;;;;;29.62;42.60;99657.29;112932;1249;22363;-40
2023/08/30 08:38:24;;;;;;;9.90;5.50;;;;;;;29.71;42.44;99656.70;112780;1249;22354;-40
2023/08/30 08:40:53;;;;;;;12.40;5.50;;;;;;;29.77;41.96;99652.02;112475;1249;23347;-48
2023/08/30 08:43:20;;;;;;;10.40;5.90;;;;;;;29.80;42.08;99648.86;112847;1248;22482;-40
2023/08/30 08:45:48;;;;;;;11.30;5.20;;;;;;;29.82;41.64;99648.20;112602;1248;22801;-40
2023/08/30 08:48:15;;;;;;;14.30;5.70;;;;;;;29.84;41.67;99641.71;112631;1249;22478;-47
2023/08/30 08:50:42;;;;;;;15.60;5.00;;;;;;;29.93;41.19;99640.46;112726;1248;22389;-47
2023/08/30 08:53:09;;;;;;;11.50;5.60;;;;;;;30.02;40.94;99638.64;112819;1248;23171;-48
2023/08/30 08:55:36;;;;;;;13.30;5.60;;;;;;;30.10;40.82;99637.88;112597;1248;22458;-48
2023/08/30 08:58:03;;;;;;;9.40;5.40;;;;;;;30.19;40.75;99635.69;112790;1248;22302;-47
2023/08/30 09:00:30;;;;;;;9.10;5.00;;;;;;;30.25;40.13;99634.06;112714;1249;22418;-40
2023/08/30 09:02:58;;;;;;;13.10;6.00;;;;;;;30.26;40.33;99632.61;112791;1248;22457;-40
2023/08/30 09:05:27;;;;;;;8.70;4.50;;;;;;;30.30;40.55;99627.27;112575;1249;22575;-41
2023/08/30 09:07:55;;;;;;;13.10;5.70;;;;;;;30.39;40.55;99625.69;112449;1248;22908;-40
2023/08/30 09:10:22;;;;;;;11.60;5.80;;;;;;;30.51;40.18;99625.29;112375;1248;22874;-41
2023/08/30 09:12:51;;;;;;;10.80;5.70;;;;;;;30.60;39.64;99629.45;112558;1249;22684;-40
2023/08/30 09:15:18;;;;;;;10.30;5.50;;;;;;;30.62;39.84;99629.45;112799;1249;23073;-41
2023/08/30 09:17:48;;;;;;;14.20;5.70;;;;;;;30.63;39.60;99624.71;112801;1248;22236;-47
2023/08/30 09:20:20;;;;;;;12.70;5.30;;;;;;;30.66;39.83;99622.80;112956;1249;23163;-47
2023/08/30 09:22:48;;;;;;;10.00;5.90;;;;;;;30.69;39.49;99617.81;112546;1248;22356;-40
2023/08/30 09:25:25;;;;;;;14.20;6.00;;;;;;;30.71;39.50;99618.54;112943;1248;22410;-41
2023/08/30 09:28:00;;;;;;;8.30;5.40;;;;;;;30.74;39.23;99610.70;112730;1249;23085;-40
2023/08/30 09:30:40;;;;;;;13.00;6.10;;;;;;;30.76;39.17;99611.61;112382;1249;22929;-40
2023/08/30 09:33:15;;;;;;;9.40;5.80;;;;;;;30.71;38.97;99607.21;111682;1249;23335;-40
2023/08/30 09:35:45;;;;;;;13.50;5.90;;;;;;;30.65;39.39;99602.92;111170;1249;23409;-47
2023/08/30 09:38:18;;;;;;;10.40;6.40;;;;;;;30.61;39.97;99599.50;111868;1249;25339;-40
2023/08/30 09:40:45;;;;;;;10.60;6.30;;;;;;;30.63;39.95;99593.92;111928;1249;23066;-41
2023/08/30 09:43:12;;;;;;;17.60;6.90;;;;;;;30.68;39.37;99594.55;112995;1249;22365;-39
2023/08/30 09:45:41;;;;;;;11.20;6.50;;;;;;;30.73;39.37;99592.63;112620;1249;22970;-40
2023/08/30 09:48:09;;;;;;;16.40;5.80;;;;;;;30.82;39.12;99593.09;112740;1249;22537;-40
2023/08/30 09:50:36;;;;;;;15.80;6.40;;;;;;;30.85;38.77;99596.36;112377;1249;26248;-39
2023/08/30 09:53:09;;;;;;;16.70;6.70;;;;;;;30.84;38.48;99594.83;112923;1249;23217;-40
2023/08/30 09:55:45;;;;;;;12.70;6.30;;;;;;;30.82;37.97;99597.21;112476;1249;22612;-39
2023/08/30 09:58:12;;;;;;;17.70;7.00;;;;;;;30.79;38.01;99596.01;111878;1249;22385;-40
2023/08/30 10:00:43;;;;;;;11.00;6.70;;;;;;;30.78;38.15;99595.66;112590;1249;22469;-47
2023/08/30 10:03:10;;;;;;;16.20;6.30;;;;;;;30.81;38.35;99594.94;112971;1249;22164;-48
2023/08/30 10:05:58;;;;;;;13.80;6.80;;;;;;;30.86;37.99;99588.34;112577;1249;22426;-48
2023/08/30 10:08:29;;;;;;;9.10;5.90;;;;;;;30.91;38.01;99588.23;112950;1249;23047;-40
2023/08/30 10:10:57;;;;;;;16.30;6.30;;;;;;;30.94;38.15;99581.77;112741;1249;22423;-40
2023/08/30 10:13:25;;;;;;;19.60;6.00;;;;;;;30.96;37.67;99580.89;112909;1249;22374;-47
2023/08/30 10:15:53;;;;;;;12.70;6.00;;;;;;;31.00;37.87;99576.95;112923;1249;22397;-41
2023/08/30 10:18:20;;;;;;;9.10;5.10;;;;;;;31.05;37.34;99581.70;112709;1249;22512;-40
2023/08/30 10:20:47;;;;;;;9.80;6.00;;;;;;;31.15;37.50;99584.41;112735;1249;22429;-48
2023/08/30 10:23:15;;;;;;;14.50;6.20;;;;;;;31.34;37.09;99578.17;112936;1249;23124;-48
2023/08/30 10:25:42;;;;;;;14.00;5.70;;;;;;;31.53;36.32;99577.89;112805;1249;22395;-41
2023/08/30 10:28:09;;;;;;;9.80;5.60;;;;;;;31.70;35.53;99576.78;112620;1249;22238;-41
2023/08/30 10:30:36;;;;;;;10.40;5.80;;;;;;;31.89;35.37;99579.16;112838;1249;22383;-41
2023/08/30 10:33:12;;;;;;;10.40;5.30;;;;;;;32.10;34.93;99576.74;113004;1249;23243;-48
2023/08/30 10:35:51;;;;;;;8.10;5.50;;;;;;;32.31;34.50;99578.36;112680;1249;22527;-40
2023/08/30 10:38:26;;;;;;;8.80;6.30;;;;;;;32.62;34.16;99577.19;113012;1249;22334;-39
2023/08/30 10:40:54;;;;;;;10.90;5.10;;;;;;;33.03;33.83;99569.46;112960;1249;23060;-40
2023/08/30 10:43:30;;;;;;;10.00;5.10;;;;;;;33.51;33.27;99570.02;112966;1249;23315;-40
2023/08/30 10:46:11;;;;;;;11.60;5.20;;;;;;;33.99;32.40;99571.66;113000;1249;22386;-47
2023/08/30 10:48:39;;;;;;;11.50;6.00;;;;;;;34.46;31.45;99565.45;112988;1240;22965;-47
2023/08/30 10:51:21;;;;;;;10.70;5.10;;;;;;;34.85;30.84;99563.59;113009;1249;22440;-47
2023/08/30 10:53:58;;;;;;;;;;;;;;;35.21;29.84;99564.06;112878;1248;23107;-47
2023/08/30 10:56:29;;;;;;;9.20;5.00;;;;;;;35.45;29.03;99558.18;112683;1249;22508;-40
2023/08/30 10:58:56;;;;;;;13.70;6.00;;;;;;;35.69;28.87;99555.42;112595;1249;23160;-40
2023/08/30 11:01:23;;;;;;;8.40;4.60;;;;;;;35.92;28.46;99548.69;110891;1249;22883;-43
2023/08/30 11:03:51;;;;;;;14.20;4.90;;;;;;;36.13;28.16;99545.48;111156;1249;22499;-46
2023/08/30 11:06:21;;;;;;;11.90;5.40;;;;;;;36.36;27.69;99542.32;111197;1249;22518;-40
2023/08/30 11:08:49;;;;;;;10.10;4.80;;;;;;;36.48;27.41;99540.37;110495;1248;22494;-40
2023/08/30 11:11:16;;;;;;;9.20;5.80;;;;;;;36.46;27.17;99540.23;110536;1249;24316;-41
2023/08/30 11:13:43;;;;;;;5.50;4.40;;;;;;;36.29;27.15;99528.38;110582;1249;25297;-41
2023/08/30 11:16:11;;;;;;;14.50;5.90;;;;;;;36.05;27.39;99526.48;110422;1249;25399;-40
2023/08/30 11:18:39;;;;;;;11.50;5.10;;;;;;;35.77;27.81;99521.85;110717;1249;22601;-41
2023/08/30 11:21:07;;;;;;;11.00;4.70;;;;;;;35.41;28.02;99513.02;111615;1249;23149;-41
2023/08/30 11:23:34;;;;;;;9.70;4.50;;;;;;;35.01;28.14;99509.10;111485;1249;23262;-42
2023/08/30 11:26:03;;;;;;;10.10;5.30;;;;;;;34.55;28.37;99509.14;111036;1249;23147;-40
2023/08/30 11:28:30;;;;;;;9.50;4.90;;;;;;;34.00;28.89;99506.92;111059;1249;23156;-41
2023/08/30 11:30:57;;;;;;;9.30;5.10;;;;;;;33.54;29.26;99503.83;110331;1248;24325;-40
2023/08/30 11:33:25;;;;;;;9.30;5.40;;;;;;;33.20;29.85;99491.77;111385;1249;23157;-41
2023/08/30 11:35:52;;;;;;;16.00;5.60;;;;;;;32.97;30.38;99481.69;111990;1249;22566;-41
2023/08/30 11:38:19;;;;;;;9.50;4.90;;;;;;;32.77;30.70;99482.49;113016;1249;22361;-47
2023/08/30 11:40:48;;;;;;;14.00;4.90;;;;;;;32.59;30.59;99480.03;110763;1249;22280;-47
2023/08/30 11:43:16;;;;;;;6.80;4.60;;;;;;;32.35;30.90;99473.54;113028;1248;22428;-48
2023/08/30 11:45:42;;;;;;;9.40;5.10;;;;;;;32.21;31.31;99476.04;112703;1249;22495;-39
2023/08/30 11:48:09;;;;;;;11.80;4.80;;;;;;;32.13;31.87;99473.48;112742;1249;22189;-40
2023/08/30 11:50:37;;;;;;;8.90;5.50;;;;;;;32.09;31.56;99466.67;112656;1249;22693;-48
2023/08/30 11:53:15;;;;;;;5.70;5.10;;;;;;;32.02;31.76;99466.63;112677;1249;22326;-48
2023/08/30 11:55:42;;;;;;;7.00;5.20;;;;;;;31.95;31.92;99474.04;113021;1249;22259;-40
2023/08/30 11:58:08;;;;;;;10.90;5.20;;;;;;;31.89;31.95;99472.14;111879;1248;22614;-40
2023/08/30 12:00:37;;;;;;;6.90;4.70;;;;;;;31.85;32.25;99469.84;112244;1249;23225;-48
2023/08/30 12:03:07;;;;;;;5.80;4.90;;;;;;;31.84;32.27;99469.02;111240;1249;22530;-48
2023/08/30 12:05:36;;;;;;;10.10;6.00;;;;;;;31.83;32.46;99466.92;112993;1249;22313;-41
2023/08/30 12:08:03;;;;;;;8.00;6.00;;;;;;;31.81;32.50;99457.69;113010;1249;22244;-40
2023/08/30 12:10:31;;;;;;;8.10;4.80;;;;;;;31.78;32.43;99458.08;112989;1249;23168;-41
2023/08/30 12:12:58;;;;;;;5.90;4.70;;;;;;;31.80;32.47;99451.80;113042;1249;23092;-47
2023/08/30 12:15:27;;;;;;;5.90;5.00;;;;;;;31.81;32.32;99451.83;112800;1249;23132;-48
2023/08/30 12:17:55;;;;;;;13.10;5.10;;;;;;;31.78;32.03;99451.56;111350;1249;22524;-47
2023/08/30 12:20:23;;;;;;;10.80;5.60;;;;;;;31.71;32.15;99453.39;111455;1249;22522;-47
2023/08/30 12:22:51;;;;;;;10.10;5.20;;;;;;;31.63;32.07;99452.20;111925;1249;22505;-41
2023/08/30 12:25:22;;;;;;;7.10;4.90;;;;;;;31.56;32.06;99446.73;111518;1249;22505;-40
2023/08/30 12:27:49;;;;;;;6.40;5.30;;;;;;;31.52;32.36;99441.80;110901;1249;23880;-48
2023/08/30 12:30:17;;;;;;;10.60;5.00;;;;;;;31.49;32.42;99440.08;109995;1249;24232;-49
2023/08/30 12:32:45;;;;;;;7.40;4.80;;;;;;;31.48;32.10;99442.02;110611;1249;25502;-39
2023/08/30 12:35:12;;;;;;;12.20;5.10;;;;;;;31.44;32.03;99444.03;112380;1249;22458;-40
2023/08/30 12:37:39;;;;;;;10.30;4.60;;;;;;;31.43;32.47;99449.20;113019;1249;22882;-41
2023/08/30 12:40:06;;;;;;;9.80;5.20;;;;;;;31.42;32.49;99447.61;111038;1249;22513;-41
2023/08/30 12:42:34;;;;;;;16.70;5.10;;;;;;;31.41;32.27;99445.61;110363;1249;22673;-48
2023/08/30 12:45:01;;;;;;;8.70;4.80;;;;;;;31.36;32.75;99445.70;112918;1249;23904;-40
2023/08/30 12:47:28;;;;;;;9.30;5.50;;;;;;;31.33;33.21;99445.34;110785;1248;24193;-41
2023/08/30 12:49:56;;;;;;;12.40;5.00;;;;;;;31.30;33.30;99449.96;112672;1249;23156;-49
2023/08/30 12:52:23;;;;;;;7.80;5.30;;;;;;;31.28;34.10;99446.38;113002;1249;22366;-40
2023/08/30 12:54:52;;;;;;;7.50;4.70;;;;;;;31.26;34.56;99440.09;113001;1249;22387;-47
2023/08/30 12:57:19;;;;;;;9.90;5.20;;;;;;;31.17;34.16;99443.10;111708;1249;23140;-47
2023/08/30 12:59:46;;;;;;;7.30;4.80;;;;;;;31.10;34.24;99441.83;112971;1249;22406;-40
2023/08/30 13:02:13;;;;;;;8.00;4.90;;;;;;;31.05;34.10;99447.59;113012;1249;22466;-41
2023/08/30 13:04:40;;;;;;;12.90;4.90;;;;;;;31.01;34.44;99450.61;111894;1249;25364;-40
2023/08/30 13:07:08;;;;;;;7.70;4.60;;;;;;;30.99;34.11;99452.21;111514;1249;23212;-40
2023/08/30 13:09:34;;;;;;;5.20;4.60;;;;;;;31.02;34.31;99447.45;112262;1249;22492;-48
2023/08/30 13:12:02;;;;;;;5.60;5.00;;;;;;;31.09;34.33;99450.31;112569;1249;22335;-41
2023/08/30 13:14:29;;;;;;;7.60;5.60;;;;;;;31.14;33.84;99450.63;110977;1249;22619;-48
2023/08/30 13:16:57;;;;;;;9.70;5.30;;;;;;;31.25;34.07;99456.20;113022;1249;23206;-43
2023/08/30 13:19:24;;;;;;;7.20;4.70;;;;;;;31.32;33.65;99453.92;113010;1248;22455;-41
2023/08/30 13:21:51;;;;;;;10.70;4.90;;;;;;;31.44;33.53;99446.88;113043;1249;22229;-41
2023/08/30 13:24:18;;;;;;;8.70;5.30;;;;;;;31.48;33.27;99446.66;112999;1248;23219;-40
